Time,TemperatureF,DewpointF,PressureIn,WindDirection,WindDirectionDegrees,WindSpeedMPH,WindSpeedGustMPH,Humidity,HourlyPrecipIn,Conditions,Clouds,dailyrainin,SoftwareType,DateUTC
2013-07-15 00:01:00,72.2,70.0,30.16,ENE,76,2.0,9.0,92,0.00,,,0.00,weatherlink.com 1.10,2013-07-15 04:01:00,
2013-07-15 00:16:00,72.2,70.0,30.16,WSW,248,1.0,3.0,92,0.00,,,0.00,weatherlink.com 1.10,2013-07-15 04:16:00,
2013-07-15 00:31:00,72.2,70.0,30.16,SE,134,1.0,11.0,92,0.00,,,0.00,weatherlink.com 1.10,2013-07-15 04:31:00,
2013-07-15 00:46:00,72.3,70.0,30.16,ENE,70,0.0,6.0,91,0.00,,,0.00,weatherlink.com 1.10,2013-07-15 04:46:00,
2013-07-15 01:01:00,72.3,70.0,30.17,West,266,0.0,8.0,91,0.00,,,0.00,weatherlink.com 1.10,2013-07-15 05:01:00,
2013-07-15 01:17:00,72.2,70.0,30.17,ENE,62,1.0,7.0,91,0.00,,,0.00,weatherlink.com 1.10,2013-07-15 05:17:00,
2013-07-15 01:32:00,72.2,70.0,30.17,South,183,2.0,8.0,92,0.00,,,0.00,weatherlink.com 1.10,2013-07-15 05:32:00,
2013-07-15 01:47:00,71.6,70.0,30.18,SSE,168,0.0,5.0,94,0.01,,,0.01,weatherlink.com 1.10,2013-07-15 05:47:00,
2013-07-15 02:02:00,71.0,70.0,30.17,South,190,2.0,6.0,95,0.01,,,0.01,weatherlink.com 1.10,2013-07-15 06:02:00,
2013-07-15 02:17:00,70.7,70.0,30.17,SE,134,0.0,5.0,96,0.01,,,0.01,weatherlink.com 1.10,2013-07-15 06:17:00,
2013-07-15 02:32:00,70.6,70.0,30.17,South,176,0.0,6.0,96,0.01,,,0.01,weatherlink.com 1.10,2013-07-15 06:32:00,
2013-07-15 02:47:00,70.7,70.0,30.17,South,175,0.0,4.0,96,0.00,,,0.01,weatherlink.com 1.10,2013-07-15 06:47:00,
2013-07-15 03:02:00,70.7,69.0,30.17,South,182,2.0,3.0,95,0.00,,,0.01,weatherlink.com 1.10,2013-07-15 07:02:00,
2013-07-15 03:17:00,70.5,69.0,30.17,SSW,203,2.0,3.0,95,0.00,,,0.01,weatherlink.com 1.10,2013-07-15 07:17:00,
2013-07-15 03:32:00,70.4,69.0,30.17,SSE,157,2.0,5.0,95,0.00,,,0.01,weatherlink.com 1.10,2013-07-15 07:32:00,
2013-07-15 03:47:00,70.3,69.0,30.18,SSE,156,1.0,4.0,95,0.00,,,0.01,weatherlink.com 1.10,2013-07-15 07:47:00,
2013-07-15 04:02:00,70.2,69.0,30.18,SSE,164,0.0,5.0,95,0.00,,,0.01,weatherlink.com 1.10,2013-07-15 08:02:00,
2013-07-15 04:17:00,70.3,69.0,30.18,ESE,115,1.0,7.0,94,0.00,,,0.01,weatherlink.com 1.10,2013-07-15 08:17:00,
2013-07-15 04:32:00,70.2,69.0,30.19,SSW,209,3.0,5.0,94,0.00,,,0.01,weatherlink.com 1.10,2013-07-15 08:32:00,
2013-07-15 04:47:00,70.2,69.0,30.18,South,176,0.0,4.0,94,0.00,,,0.01,weatherlink.com 1.10,2013-07-15 08:47:00,
2013-07-15 05:02:00,70.3,68.0,30.18,SSW,196,2.0,5.0,93,0.00,,,0.01,weatherlink.com 1.10,2013-07-15 09:02:00,
2013-07-15 05:17:00,70.3,68.0,30.18,SSW,204,1.0,9.0,93,0.00,,,0.01,weatherlink.com 1.10,2013-07-15 09:17:00,
2013-07-15 05:32:00,70.5,68.0,30.19,South,170,0.0,3.0,93,0.00,,,0.01,weatherlink.com 1.10,2013-07-15 09:32:00,
2013-07-15 05:47:00,70.6,69.0,30.19,WSW,250,0.0,5.0,93,0.00,,,0.01,weatherlink.com 1.10,2013-07-15 09:47:00,
2013-07-15 06:02:00,70.6,69.0,30.19,SSE,157,0.0,3.0,93,0.00,,,0.01,weatherlink.com 1.10,2013-07-15 10:02:00,
2013-07-15 06:17:00,70.6,68.0,30.20,South,173,3.0,4.0,92,0.00,,,0.01,weatherlink.com 1.10,2013-07-15 10:17:00,
2013-07-15 06:32:00,70.7,68.0,30.21,East,96,0.0,6.0,92,0.00,,,0.01,weatherlink.com 1.10,2013-07-15 10:32:00,
2013-07-15 06:47:00,70.9,69.0,30.21,NE,52,1.0,8.0,92,0.00,,,0.01,weatherlink.com 1.10,2013-07-15 10:47:00,
2013-07-15 07:02:00,70.8,68.0,30.22,South,179,0.0,4.0,92,0.00,,,0.01,weatherlink.com 1.10,2013-07-15 11:02:00,
2013-07-15 07:17:00,70.9,69.0,30.23,East,80,2.0,5.0,92,0.00,,,0.01,weatherlink.com 1.10,2013-07-15 11:17:00,
2013-07-15 07:32:00,71.0,69.0,30.23,NE,49,1.0,7.0,92,0.00,,,0.01,weatherlink.com 1.10,2013-07-15 11:32:00,
2013-07-15 07:47:00,71.1,69.0,30.23,South,185,0.0,4.0,92,0.00,,,0.01,weatherlink.com 1.10,2013-07-15 11:47:00,
2013-07-15 08:02:00,71.3,69.0,30.23,WSW,244,0.0,4.0,92,0.00,,,0.01,weatherlink.com 1.10,2013-07-15 12:02:00,
2013-07-15 08:17:00,71.7,69.0,30.23,SSE,163,0.0,4.0,91,0.00,,,0.01,weatherlink.com 1.10,2013-07-15 12:17:00,
2013-07-15 08:32:00,72.0,69.0,30.24,SW,227,1.0,3.0,91,0.00,,,0.01,weatherlink.com 1.10,2013-07-15 12:32:00,
2013-07-15 08:47:00,72.2,70.0,30.25,SW,233,0.0,3.0,91,0.00,,,0.01,weatherlink.com 1.10,2013-07-15 12:47:00,
2013-07-15 09:02:00,72.4,69.0,30.24,SW,231,0.0,7.0,89,0.00,,,0.01,weatherlink.com 1.10,2013-07-15 13:02:00,
2013-07-15 09:17:00,72.9,70.0,30.25,SSW,209,0.0,7.0,89,0.00,,,0.01,weatherlink.com 1.10,2013-07-15 13:17:00,
2013-07-15 09:32:00,73.4,70.0,30.25,SE,137,1.0,5.0,88,0.00,,,0.01,weatherlink.com 1.10,2013-07-15 13:32:00,
2013-07-15 09:48:00,74.9,71.0,30.25,SW,229,4.0,8.0,86,0.00,,,0.01,weatherlink.com 1.10,2013-07-15 13:48:00,
2013-07-15 10:03:00,76.7,71.0,30.25,South,169,0.0,6.0,82,0.00,,,0.01,weatherlink.com 1.10,2013-07-15 14:03:00,
2013-07-15 10:18:00,77.8,71.0,30.25,South,177,0.0,6.0,79,0.00,,,0.01,weatherlink.com 1.10,2013-07-15 14:18:00,
2013-07-15 10:33:00,77.3,70.0,30.26,South,188,4.0,7.0,77,0.00,,,0.01,weatherlink.com 1.10,2013-07-15 14:33:00,
2013-07-15 10:48:00,76.4,70.0,30.26,SSW,208,6.0,7.0,80,0.00,,,0.01,weatherlink.com 1.10,2013-07-15 14:48:00,
2013-07-15 11:03:00,76.7,69.0,30.26,South,171,0.0,5.0,78,0.00,,,0.01,weatherlink.com 1.10,2013-07-15 15:03:00,
2013-07-15 11:18:00,77.4,70.0,30.27,SSE,154,0.0,7.0,79,0.00,,,0.01,weatherlink.com 1.10,2013-07-15 15:18:00,
2013-07-15 11:33:00,78.1,71.0,30.27,South,178,0.0,5.0,78,0.00,,,0.01,weatherlink.com 1.10,2013-07-15 15:33:00,
2013-07-15 11:48:00,79.1,71.0,30.27,South,186,3.0,5.0,75,0.00,,,0.01,weatherlink.com 1.10,2013-07-15 15:48:00,
2013-07-15 12:03:00,80.0,72.0,30.27,WSW,258,0.0,3.0,76,0.00,,,0.01,weatherlink.com 1.10,2013-07-15 16:03:00,
2013-07-15 12:18:00,81.5,71.0,30.26,SSW,204,0.0,4.0,71,0.00,,,0.01,weatherlink.com 1.10,2013-07-15 16:18:00,
2013-07-15 12:33:00,82.9,72.0,30.26,ENE,61,0.0,7.0,69,0.00,,,0.01,weatherlink.com 1.10,2013-07-15 16:33:00,
2013-07-15 12:48:00,83.8,72.0,30.26,NE,48,0.0,4.0,68,0.00,,,0.01,weatherlink.com 1.10,2013-07-15 16:48:00,
2013-07-15 13:03:00,84.3,71.0,30.25,West,269,2.0,6.0,65,0.00,,,0.01,weatherlink.com 1.10,2013-07-15 17:03:00,
2013-07-15 13:18:00,84.6,72.0,30.25,East,86,1.0,5.0,67,0.00,,,0.01,weatherlink.com 1.10,2013-07-15 17:18:00,
2013-07-15 13:33:00,84.1,72.0,30.25,NNE,30,0.0,3.0,67,0.00,,,0.01,weatherlink.com 1.10,2013-07-15 17:33:00,
2013-07-15 13:48:00,84.2,72.0,30.24,South,179,1.0,11.0,67,0.00,,,0.01,weatherlink.com 1.10,2013-07-15 17:48:00,
2013-07-15 14:03:00,83.6,72.0,30.24,NW,320,0.0,5.0,67,0.00,,,0.01,weatherlink.com 1.10,2013-07-15 18:03:00,
2013-07-15 14:18:00,84.7,71.0,30.24,ENE,63,0.0,3.0,64,0.00,,,0.01,weatherlink.com 1.10,2013-07-15 18:18:00,
2013-07-15 14:33:00,86.1,71.0,30.23,SSW,193,0.0,6.0,60,0.00,,,0.01,weatherlink.com 1.10,2013-07-15 18:33:00,
2013-07-15 14:48:00,86.9,71.0,30.23,SW,217,1.0,7.0,59,0.00,,,0.01,weatherlink.com 1.10,2013-07-15 18:48:00,
2013-07-15 15:03:00,86.1,72.0,30.22,ENE,65,1.0,6.0,62,0.00,,,0.01,weatherlink.com 1.10,2013-07-15 19:03:00,
2013-07-15 15:18:00,85.1,70.0,30.22,SE,139,1.0,3.0,61,0.00,,,0.01,weatherlink.com 1.10,2013-07-15 19:18:00,
2013-07-15 15:33:00,86.4,72.0,30.21,SW,231,0.0,4.0,63,0.00,,,0.01,weatherlink.com 1.10,2013-07-15 19:33:00,
2013-07-15 15:48:00,86.8,74.0,30.20,East,94,0.0,2.0,65,0.00,,,0.01,weatherlink.com 1.10,2013-07-15 19:48:00,
2013-07-15 16:03:00,86.9,71.0,30.20,SSE,157,0.0,1.0,59,0.00,,,0.01,weatherlink.com 1.10,2013-07-15 20:03:00,
2013-07-15 16:33:00,87.8,71.0,30.19,ENE,76,0.0,3.0,58,0.00,,,0.01,weatherlink.com 1.10,2013-07-15 20:33:00,
2013-07-15 17:03:00,87.8,73.0,30.18,ESE,119,0.0,3.0,61,0.00,,,0.01,weatherlink.com 1.10,2013-07-15 21:03:00,
2013-07-15 17:18:00,86.5,71.0,30.18,East,96,0.0,2.0,61,0.00,,,0.01,weatherlink.com 1.10,2013-07-15 21:18:00,
2013-07-15 17:33:00,86.2,72.0,30.17,ENE,74,0.0,1.0,63,0.00,,,0.01,weatherlink.com 1.10,2013-07-15 21:33:00,
2013-07-15 17:48:00,84.7,71.0,30.18,ESE,109,0.0,6.0,63,0.00,,,0.01,weatherlink.com 1.10,2013-07-15 21:48:00,
2013-07-15 18:03:00,83.3,71.0,30.18,ENE,69,2.0,4.0,66,0.00,,,0.01,weatherlink.com 1.10,2013-07-15 22:03:00,
2013-07-15 18:33:00,76.9,71.0,30.18,WNW,303,1.0,6.0,82,0.01,,,0.02,weatherlink.com 1.10,2013-07-15 22:33:00,
2013-07-15 19:04:00,74.2,71.0,30.18,South,190,0.0,0.0,89,0.01,,,0.02,weatherlink.com 1.10,2013-07-15 23:04:00,
2013-07-15 19:19:00,74.3,70.0,30.18,ESE,120,0.0,1.0,87,0.01,,,0.02,weatherlink.com 1.10,2013-07-15 23:19:00,
2013-07-15 19:34:00,74.2,71.0,30.19,ENE,59,0.0,1.0,88,0.00,,,0.02,weatherlink.com 1.10,2013-07-15 23:34:00,
2013-07-15 19:49:00,73.6,70.0,30.18,ENE,59,0.0,0.0,89,0.00,,,0.02,weatherlink.com 1.10,2013-07-15 23:49:00,
2013-07-15 20:04:00,73.1,70.0,30.19,ENE,59,0.0,0.0,91,0.00,,,0.02,weatherlink.com 1.10,2013-07-16 00:04:00,
2013-07-15 20:34:00,72.4,70.0,30.20,ENE,59,0.0,0.0,93,0.00,,,0.02,weatherlink.com 1.10,2013-07-16 00:34:00,
2013-07-15 20:49:00,72.4,70.0,30.20,ENE,59,0.0,0.0,92,0.00,,,0.02,weatherlink.com 1.10,2013-07-16 00:49:00,
2013-07-15 21:04:00,72.2,70.0,30.20,ENE,59,0.0,0.0,92,0.00,,,0.02,weatherlink.com 1.10,2013-07-16 01:04:00,
2013-07-15 21:19:00,72.1,69.0,30.20,ENE,59,0.0,0.0,91,0.00,,,0.02,weatherlink.com 1.10,2013-07-16 01:19:00,
2013-07-15 21:34:00,72.0,70.0,30.21,ENE,59,0.0,0.0,92,0.00,,,0.02,weatherlink.com 1.10,2013-07-16 01:34:00,
2013-07-15 21:49:00,72.1,70.0,30.22,ENE,60,0.0,1.0,92,0.00,,,0.02,weatherlink.com 1.10,2013-07-16 01:49:00,
2013-07-15 22:04:00,72.6,70.0,30.23,SW,220,0.0,2.0,91,0.00,,,0.02,weatherlink.com 1.10,2013-07-16 02:04:00,
2013-07-15 22:19:00,73.3,70.0,30.23,SSW,211,0.0,1.0,90,0.00,,,0.02,weatherlink.com 1.10,2013-07-16 02:19:00,
2013-07-15 22:34:00,73.7,70.0,30.24,SSW,211,0.0,2.0,89,0.00,,,0.02,weatherlink.com 1.10,2013-07-16 02:34:00,
2013-07-15 22:49:00,73.8,70.0,30.24,SSW,211,0.0,2.0,88,0.00,,,0.02,weatherlink.com 1.10,2013-07-16 02:49:00,
2013-07-15 23:04:00,73.7,70.0,30.25,SSE,165,0.0,2.0,88,0.00,,,0.02,weatherlink.com 1.10,2013-07-16 03:04:00,
2013-07-15 23:18:00,73.7,70.0,30.25,South,189,0.0,2.0,88,0.00,,,0.02,weatherlink.com 1.10,2013-07-16 03:18:00,
2013-07-15 23:33:00,73.8,70.0,30.25,SSE,161,1.0,2.0,87,0.00,,,0.02,weatherlink.com 1.10,2013-07-16 03:33:00,
2013-07-15 23:48:00,73.9,70.0,30.25,South,176,0.0,4.0,87,0.00,,,0.02,weatherlink.com 1.10,2013-07-16 03:48:00,